sensor_id;sensor_type;location;lat;lon;timestamp;P1;durP1;ratioP1;P2;durP2;ratioP2
76320;SDS011;65132;52.088;5.402;2023-03-29T00:01:22;2.65;;;1.33;;
76320;SDS011;65132;52.088;5.402;2023-03-29T00:04:03;4.72;;;1.10;;
76320;SDS011;65132;52.088;5.402;2023-03-29T00:06:34;5.40;;;1.42;;
76320;SDS011;65132;52.088;5.402;2023-03-29T00:09:00;4.13;;;1.25;;
76320;SDS011;65132;52.088;5.402;2023-03-29T00:11:30;5.45;;;1.73;;
76320;SDS011;65132;52.088;5.402;2023-03-29T00:13:58;3.03;;;1.10;;
76320;SDS011;65132;52.088;5.402;2023-03-29T00:16:24;3.85;;;1.45;;
76320;SDS011;65132;52.088;5.402;2023-03-29T00:18:52;4.03;;;1.95;;
76320;SDS011;65132;52.088;5.402;2023-03-29T00:21:24;3.70;;;1.60;;
76320;SDS011;65132;52.088;5.402;2023-03-29T00:23:52;3.83;;;1.73;;
76320;SDS011;65132;52.088;5.402;2023-03-29T00:26:19;4.53;;;1.52;;
76320;SDS011;65132;52.088;5.402;2023-03-29T00:28:45;3.67;;;1.48;;
76320;SDS011;65132;52.088;5.402;2023-03-29T00:31:12;5.72;;;1.50;;
76320;SDS011;65132;52.088;5.402;2023-03-29T00:33:43;8.93;;;1.50;;
76320;SDS011;65132;52.088;5.402;2023-03-29T00:36:13;4.05;;;0.90;;
76320;SDS011;65132;52.088;5.402;2023-03-29T00:38:42;4.07;;;1.30;;
76320;SDS011;65132;52.088;5.402;2023-03-29T00:41:13;2.40;;;0.73;;
76320;SDS011;65132;52.088;5.402;2023-03-29T00:43:55;2.33;;;1.02;;
76320;SDS011;65132;52.088;5.402;2023-03-29T00:46:26;4.38;;;1.80;;
76320;SDS011;65132;52.088;5.402;2023-03-29T00:48:57;4.75;;;1.27;;
76320;SDS011;65132;52.088;5.402;2023-03-29T00:51:31;2.92;;;1.10;;
76320;SDS011;65132;52.088;5.402;2023-03-29T00:54:00;5.00;;;1.52;;
76320;SDS011;65132;52.088;5.402;2023-03-29T00:56:31;1.92;;;0.68;;
76320;SDS011;65132;52.088;5.402;2023-03-29T01:01:49;4.28;;;1.38;;
76320;SDS011;65132;52.088;5.402;2023-03-29T01:04:37;2.13;;;0.68;;
76320;SDS011;65132;52.088;5.402;2023-03-29T01:07:21;4.82;;;1.35;;
76320;SDS011;65132;52.088;5.402;2023-03-29T01:09:53;4.22;;;1.52;;
76320;SDS011;65132;52.088;5.402;2023-03-29T01:12:28;3.03;;;0.80;;
76320;SDS011;65132;52.088;5.402;2023-03-29T01:15:00;4.45;;;1.48;;
76320;SDS011;65132;52.088;5.402;2023-03-29T01:17:30;4.10;;;1.23;;
76320;SDS011;65132;52.088;5.402;2023-03-29T01:19:58;5.47;;;1.63;;
76320;SDS011;65132;52.088;5.402;2023-03-29T01:25:11;6.47;;;2.00;;
76320;SDS011;65132;52.088;5.402;2023-03-29T01:27:59;2.60;;;1.00;;
76320;SDS011;65132;52.088;5.402;2023-03-29T01:33:15;2.72;;;1.23;;
76320;SDS011;65132;52.088;5.402;2023-03-29T01:36:06;2.58;;;0.90;;
76320;SDS011;65132;52.088;5.402;2023-03-29T01:38:41;2.78;;;0.93;;
76320;SDS011;65132;52.088;5.402;2023-03-29T01:41:12;3.58;;;1.02;;
76320;SDS011;65132;52.088;5.402;2023-03-29T01:46:30;2.92;;;1.63;;
76320;SDS011;65132;52.088;5.402;2023-03-29T01:49:03;4.43;;;1.48;;
76320;SDS011;65132;52.088;5.402;2023-03-29T01:51:45;5.07;;;1.25;;
76320;SDS011;65132;52.088;5.402;2023-03-29T01:54:26;5.60;;;1.92;;
76320;SDS011;65132;52.088;5.402;2023-03-29T01:57:03;2.20;;;1.10;;
76320;SDS011;65132;52.088;5.402;2023-03-29T01:59:33;4.15;;;1.40;;
76320;SDS011;65132;52.088;5.402;2023-03-29T02:02:04;3.88;;;1.33;;
76320;SDS011;65132;52.088;5.402;2023-03-29T02:04:38;4.72;;;2.60;;
76320;SDS011;65132;52.088;5.402;2023-03-29T02:07:08;2.00;;;0.70;;
76320;SDS011;65132;52.088;5.402;2023-03-29T02:09:35;2.58;;;1.23;;
76320;SDS011;65132;52.088;5.402;2023-03-29T02:12:04;3.35;;;1.77;;
76320;SDS011;65132;52.088;5.402;2023-03-29T02:14:32;3.97;;;1.40;;
76320;SDS011;65132;52.088;5.402;2023-03-29T02:17:17;3.72;;;1.88;;
76320;SDS011;65132;52.088;5.402;2023-03-29T02:19:53;4.93;;;1.83;;
76320;SDS011;65132;52.088;5.402;2023-03-29T02:22:26;3.80;;;1.92;;
76320;SDS011;65132;52.088;5.402;2023-03-29T02:24:58;4.93;;;1.95;;
76320;SDS011;65132;52.088;5.402;2023-03-29T02:27:29;6.07;;;1.30;;
76320;SDS011;65132;52.088;5.402;2023-03-29T02:29:55;8.57;;;1.50;;
76320;SDS011;65132;52.088;5.402;2023-03-29T02:32:25;4.53;;;1.42;;
76320;SDS011;65132;52.088;5.402;2023-03-29T02:35:00;4.90;;;1.77;;
76320;SDS011;65132;52.088;5.402;2023-03-29T02:37:32;3.88;;;1.80;;
76320;SDS011;65132;52.088;5.402;2023-03-29T02:40:05;2.20;;;0.98;;
76320;SDS011;65132;52.088;5.402;2023-03-29T02:42:33;6.25;;;1.58;;
76320;SDS011;65132;52.088;5.402;2023-03-29T02:45:03;4.82;;;1.58;;
76320;SDS011;65132;52.088;5.402;2023-03-29T02:47:34;3.72;;;1.58;;
76320;SDS011;65132;52.088;5.402;2023-03-29T02:50:07;3.15;;;1.80;;
76320;SDS011;65132;52.088;5.402;2023-03-29T02:52:34;5.40;;;1.60;;
76320;SDS011;65132;52.088;5.402;2023-03-29T02:55:07;7.80;;;2.00;;
76320;SDS011;65132;52.088;5.402;2023-03-29T02:57:37;5.93;;;1.88;;
76320;SDS011;65132;52.088;5.402;2023-03-29T03:00:06;4.82;;;2.00;;
76320;SDS011;65132;52.088;5.402;2023-03-29T03:02:33;6.05;;;1.98;;
76320;SDS011;65132;52.088;5.402;2023-03-29T03:05:02;4.97;;;2.10;;
76320;SDS011;65132;52.088;5.402;2023-03-29T03:07:29;5.72;;;1.88;;
76320;SDS011;65132;52.088;5.402;2023-03-29T03:09:56;6.22;;;2.30;;
76320;SDS011;65132;52.088;5.402;2023-03-29T03:12:25;4.78;;;1.85;;
76320;SDS011;65132;52.088;5.402;2023-03-29T03:14:55;5.00;;;2.58;;
76320;SDS011;65132;52.088;5.402;2023-03-29T03:17:21;6.50;;;2.28;;
76320;SDS011;65132;52.088;5.402;2023-03-29T03:19:48;6.63;;;1.98;;
76320;SDS011;65132;52.088;5.402;2023-03-29T03:22:17;4.65;;;1.60;;
76320;SDS011;65132;52.088;5.402;2023-03-29T03:24:43;5.88;;;2.28;;
76320;SDS011;65132;52.088;5.402;2023-03-29T03:27:18;5.45;;;1.92;;
76320;SDS011;65132;52.088;5.402;2023-03-29T03:29:46;5.60;;;2.17;;
76320;SDS011;65132;52.088;5.402;2023-03-29T03:32:13;3.22;;;1.27;;
76320;SDS011;65132;52.088;5.402;2023-03-29T03:34:39;5.72;;;2.13;;
76320;SDS011;65132;52.088;5.402;2023-03-29T03:37:08;4.35;;;2.08;;
76320;SDS011;65132;52.088;5.402;2023-03-29T03:39:34;7.32;;;2.40;;
76320;SDS011;65132;52.088;5.402;2023-03-29T03:42:10;3.72;;;1.77;;
76320;SDS011;65132;52.088;5.402;2023-03-29T03:44:36;6.10;;;2.13;;
76320;SDS011;65132;52.088;5.402;2023-03-29T03:47:03;4.57;;;1.65;;
76320;SDS011;65132;52.088;5.402;2023-03-29T03:49:30;3.78;;;1.73;;
76320;SDS011;65132;52.088;5.402;2023-03-29T03:51:56;4.43;;;1.67;;
76320;SDS011;65132;52.088;5.402;2023-03-29T03:54:23;3.65;;;1.67;;
76320;SDS011;65132;52.088;5.402;2023-03-29T03:56:52;6.72;;;2.25;;
76320;SDS011;65132;52.088;5.402;2023-03-29T03:59:22;3.47;;;1.63;;
76320;SDS011;65132;52.088;5.402;2023-03-29T04:01:48;5.65;;;1.85;;
76320;SDS011;65132;52.088;5.402;2023-03-29T04:04:14;3.30;;;1.20;;
76320;SDS011;65132;52.088;5.402;2023-03-29T04:06:42;5.78;;;2.22;;
76320;SDS011;65132;52.088;5.402;2023-03-29T04:09:09;4.95;;;1.55;;
76320;SDS011;65132;52.088;5.402;2023-03-29T04:11:38;5.43;;;1.60;;
76320;SDS011;65132;52.088;5.402;2023-03-29T04:14:04;3.80;;;1.33;;
76320;SDS011;65132;52.088;5.402;2023-03-29T04:16:31;4.65;;;1.80;;
76320;SDS011;65132;52.088;5.402;2023-03-29T04:18:57;4.85;;;1.63;;
76320;SDS011;65132;52.088;5.402;2023-03-29T04:21:23;3.53;;;1.50;;
76320;SDS011;65132;52.088;5.402;2023-03-29T04:23:50;3.25;;;1.42;;
76320;SDS011;65132;52.088;5.402;2023-03-29T04:26:17;5.22;;;1.95;;
76320;SDS011;65132;52.088;5.402;2023-03-29T04:28:43;4.47;;;2.40;;
76320;SDS011;65132;52.088;5.402;2023-03-29T04:31:10;3.42;;;1.90;;
76320;SDS011;65132;52.088;5.402;2023-03-29T04:33:40;3.67;;;1.60;;
76320;SDS011;65132;52.088;5.402;2023-03-29T04:36:12;5.57;;;1.85;;
76320;SDS011;65132;52.088;5.402;2023-03-29T04:38:39;5.25;;;1.83;;
76320;SDS011;65132;52.088;5.402;2023-03-29T04:41:12;5.43;;;2.17;;
76320;SDS011;65132;52.088;5.402;2023-03-29T04:43:38;4.88;;;2.30;;
76320;SDS011;65132;52.088;5.402;2023-03-29T04:46:10;4.78;;;1.48;;
76320;SDS011;65132;52.088;5.402;2023-03-29T04:48:40;3.88;;;1.75;;
76320;SDS011;65132;52.088;5.402;2023-03-29T04:51:07;5.03;;;1.75;;
76320;SDS011;65132;52.088;5.402;2023-03-29T04:53:33;3.97;;;1.45;;
76320;SDS011;65132;52.088;5.402;2023-03-29T04:56:03;4.70;;;1.63;;
76320;SDS011;65132;52.088;5.402;2023-03-29T04:58:30;3.63;;;1.23;;
76320;SDS011;65132;52.088;5.402;2023-03-29T05:00:57;3.95;;;1.38;;
76320;SDS011;65132;52.088;5.402;2023-03-29T05:03:27;4.63;;;1.85;;
76320;SDS011;65132;52.088;5.402;2023-03-29T05:05:53;3.75;;;1.42;;
76320;SDS011;65132;52.088;5.402;2023-03-29T05:08:20;4.05;;;1.63;;
76320;SDS011;65132;52.088;5.402;2023-03-29T05:10:46;4.20;;;1.55;;
76320;SDS011;65132;52.088;5.402;2023-03-29T05:13:13;3.92;;;1.90;;
76320;SDS011;65132;52.088;5.402;2023-03-29T05:15:40;4.57;;;2.13;;
76320;SDS011;65132;52.088;5.402;2023-03-29T05:18:10;4.63;;;1.60;;
76320;SDS011;65132;52.088;5.402;2023-03-29T05:20:42;6.40;;;2.08;;
76320;SDS011;65132;52.088;5.402;2023-03-29T05:23:09;5.28;;;2.10;;
76320;SDS011;65132;52.088;5.402;2023-03-29T05:25:35;5.57;;;1.85;;
76320;SDS011;65132;52.088;5.402;2023-03-29T05:28:02;3.13;;;1.23;;
76320;SDS011;65132;52.088;5.402;2023-03-29T05:30:29;4.75;;;1.75;;
76320;SDS011;65132;52.088;5.402;2023-03-29T05:33:02;5.90;;;2.10;;
76320;SDS011;65132;52.088;5.402;2023-03-29T05:35:28;4.90;;;1.52;;
76320;SDS011;65132;52.088;5.402;2023-03-29T05:37:58;6.45;;;2.13;;
76320;SDS011;65132;52.088;5.402;2023-03-29T05:40:24;2.95;;;1.13;;
76320;SDS011;65132;52.088;5.402;2023-03-29T05:42:51;3.72;;;1.52;;
76320;SDS011;65132;52.088;5.402;2023-03-29T05:45:20;5.25;;;1.55;;
76320;SDS011;65132;52.088;5.402;2023-03-29T05:47:49;4.60;;;1.80;;
76320;SDS011;65132;52.088;5.402;2023-03-29T05:50:15;5.00;;;2.00;;
76320;SDS011;65132;52.088;5.402;2023-03-29T05:52:44;6.93;;;2.03;;
76320;SDS011;65132;52.088;5.402;2023-03-29T05:55:13;5.65;;;2.40;;
76320;SDS011;65132;52.088;5.402;2023-03-29T05:57:42;3.15;;;1.50;;
76320;SDS011;65132;52.088;5.402;2023-03-29T06:00:08;5.78;;;1.88;;
76320;SDS011;65132;52.088;5.402;2023-03-29T06:02:35;6.93;;;2.28;;
76320;SDS011;65132;52.088;5.402;2023-03-29T06:05:02;4.22;;;1.65;;
76320;SDS011;65132;52.088;5.402;2023-03-29T06:07:28;2.40;;;0.85;;
76320;SDS011;65132;52.088;5.402;2023-03-29T06:09:55;4.28;;;1.40;;
76320;SDS011;65132;52.088;5.402;2023-03-29T06:12:21;5.88;;;2.58;;
76320;SDS011;65132;52.088;5.402;2023-03-29T06:14:49;5.10;;;2.20;;
76320;SDS011;65132;52.088;5.402;2023-03-29T06:31:28;3.15;;;1.52;;
76320;SDS011;65132;52.088;5.402;2023-03-29T06:33:55;7.28;;;2.70;;
76320;SDS011;65132;52.088;5.402;2023-03-29T06:36:23;7.10;;;2.20;;
76320;SDS011;65132;52.088;5.402;2023-03-29T06:38:50;4.20;;;2.00;;
76320;SDS011;65132;52.088;5.402;2023-03-29T06:41:19;4.00;;;2.05;;
76320;SDS011;65132;52.088;5.402;2023-03-29T06:43:46;5.80;;;3.38;;
76320;SDS011;65132;52.088;5.402;2023-03-29T06:46:13;6.10;;;2.45;;
76320;SDS011;65132;52.088;5.402;2023-03-29T06:48:39;6.18;;;1.92;;
76320;SDS011;65132;52.088;5.402;2023-03-29T06:51:12;7.63;;;3.00;;
76320;SDS011;65132;52.088;5.402;2023-03-29T06:53:41;5.85;;;2.42;;
76320;SDS011;65132;52.088;5.402;2023-03-29T06:56:08;4.25;;;2.03;;
76320;SDS011;65132;52.088;5.402;2023-03-29T06:58:36;6.35;;;2.53;;
76320;SDS011;65132;52.088;5.402;2023-03-29T07:01:03;6.57;;;2.53;;
76320;SDS011;65132;52.088;5.402;2023-03-29T07:03:36;5.93;;;2.92;;
76320;SDS011;65132;52.088;5.402;2023-03-29T07:06:03;7.30;;;2.70;;
76320;SDS011;65132;52.088;5.402;2023-03-29T07:08:35;5.10;;;2.30;;
76320;SDS011;65132;52.088;5.402;2023-03-29T07:11:05;11.73;;;4.43;;
76320;SDS011;65132;52.088;5.402;2023-03-29T07:13:34;7.43;;;3.53;;
76320;SDS011;65132;52.088;5.402;2023-03-29T07:16:03;5.68;;;3.58;;
76320;SDS011;65132;52.088;5.402;2023-03-29T07:18:33;5.00;;;2.15;;
76320;SDS011;65132;52.088;5.402;2023-03-29T07:21:03;5.90;;;3.15;;
76320;SDS011;65132;52.088;5.402;2023-03-29T07:23:33;7.78;;;3.22;;
76320;SDS011;65132;52.088;5.402;2023-03-29T07:26:20;7.10;;;3.00;;
76320;SDS011;65132;52.088;5.402;2023-03-29T07:29:38;8.63;;;3.08;;
76320;SDS011;65132;52.088;5.402;2023-03-29T07:32:06;8.98;;;2.85;;
76320;SDS011;65132;52.088;5.402;2023-03-29T07:34:33;8.50;;;2.95;;
76320;SDS011;65132;52.088;5.402;2023-03-29T07:36:59;5.28;;;2.33;;
76320;SDS011;65132;52.088;5.402;2023-03-29T07:39:26;6.55;;;3.22;;
76320;SDS011;65132;52.088;5.402;2023-03-29T07:42:05;5.30;;;2.72;;
76320;SDS011;65132;52.088;5.402;2023-03-29T07:44:33;5.43;;;2.28;;
76320;SDS011;65132;52.088;5.402;2023-03-29T07:47:09;7.15;;;2.58;;
76320;SDS011;65132;52.088;5.402;2023-03-29T07:49:36;7.35;;;3.83;;
76320;SDS011;65132;52.088;5.402;2023-03-29T07:52:09;4.55;;;2.60;;
76320;SDS011;65132;52.088;5.402;2023-03-29T07:54:36;5.93;;;3.20;;
76320;SDS011;65132;52.088;5.402;2023-03-29T07:57:03;11.13;;;3.70;;
76320;SDS011;65132;52.088;5.402;2023-03-29T07:59:31;8.90;;;4.40;;
76320;SDS011;65132;52.088;5.402;2023-03-29T08:02:01;5.18;;;2.63;;
76320;SDS011;65132;52.088;5.402;2023-03-29T08:04:30;8.75;;;2.63;;
76320;SDS011;65132;52.088;5.402;2023-03-29T08:06:59;9.10;;;3.85;;
76320;SDS011;65132;52.088;5.402;2023-03-29T08:09:29;7.35;;;3.25;;
76320;SDS011;65132;52.088;5.402;2023-03-29T08:11:58;8.80;;;3.80;;
76320;SDS011;65132;52.088;5.402;2023-03-29T08:14:25;8.80;;;4.10;;
76320;SDS011;65132;52.088;5.402;2023-03-29T08:16:59;11.10;;;4.72;;
76320;SDS011;65132;52.088;5.402;2023-03-29T08:19:26;7.22;;;3.45;;
76320;SDS011;65132;52.088;5.402;2023-03-29T08:21:53;8.55;;;3.67;;
76320;SDS011;65132;52.088;5.402;2023-03-29T08:24:27;8.50;;;3.25;;
76320;SDS011;65132;52.088;5.402;2023-03-29T08:26:56;8.48;;;4.13;;
76320;SDS011;65132;52.088;5.402;2023-03-29T08:31:56;8.60;;;3.53;;
76320;SDS011;65132;52.088;5.402;2023-03-29T08:34:23;10.00;;;4.10;;
76320;SDS011;65132;52.088;5.402;2023-03-29T08:36:49;9.57;;;4.45;;
76320;SDS011;65132;52.088;5.402;2023-03-29T08:39:16;9.48;;;4.38;;
76320;SDS011;65132;52.088;5.402;2023-03-29T08:41:57;12.73;;;4.70;;
76320;SDS011;65132;52.088;5.402;2023-03-29T08:49:55;8.63;;;4.35;;
76320;SDS011;65132;52.088;5.402;2023-03-29T08:52:27;13.07;;;4.93;;
76320;SDS011;65132;52.088;5.402;2023-03-29T08:55:20;9.00;;;5.18;;
76320;SDS011;65132;52.088;5.402;2023-03-29T08:57:52;9.45;;;4.95;;
76320;SDS011;65132;52.088;5.402;2023-03-29T09:02:59;8.20;;;3.72;;
76320;SDS011;65132;52.088;5.402;2023-03-29T09:05:26;7.70;;;2.92;;
76320;SDS011;65132;52.088;5.402;2023-03-29T09:08:00;8.27;;;3.80;;
76320;SDS011;65132;52.088;5.402;2023-03-29T09:10:29;9.82;;;4.90;;
76320;SDS011;65132;52.088;5.402;2023-03-29T09:16:12;9.95;;;4.97;;
76320;SDS011;65132;52.088;5.402;2023-03-29T09:19:24;8.95;;;3.97;;
76320;SDS011;65132;52.088;5.402;2023-03-29T09:27:54;9.82;;;3.83;;
76320;SDS011;65132;52.088;5.402;2023-03-29T09:30:28;14.10;;;5.93;;
76320;SDS011;65132;52.088;5.402;2023-03-29T09:33:10;10.70;;;4.90;;
76320;SDS011;65132;52.088;5.402;2023-03-29T09:35:43;11.70;;;5.53;;
76320;SDS011;65132;52.088;5.402;2023-03-29T09:38:18;10.45;;;5.65;;
76320;SDS011;65132;52.088;5.402;2023-03-29T09:40:53;7.53;;;3.80;;
76320;SDS011;65132;52.088;5.402;2023-03-29T09:46:05;8.73;;;3.97;;
76320;SDS011;65132;52.088;5.402;2023-03-29T09:48:48;9.55;;;4.28;;
76320;SDS011;65132;52.088;5.402;2023-03-29T09:51:15;12.43;;;4.60;;
76320;SDS011;65132;52.088;5.402;2023-03-29T09:53:47;8.43;;;4.20;;
76320;SDS011;65132;52.088;5.402;2023-03-29T09:56:16;10.35;;;4.63;;
76320;SDS011;65132;52.088;5.402;2023-03-29T09:58:42;10.48;;;5.47;;
76320;SDS011;65132;52.088;5.402;2023-03-29T10:01:13;10.13;;;4.78;;
76320;SDS011;65132;52.088;5.402;2023-03-29T10:03:46;13.13;;;5.35;;
76320;SDS011;65132;52.088;5.402;2023-03-29T10:06:13;9.43;;;4.18;;
76320;SDS011;65132;52.088;5.402;2023-03-29T10:08:46;10.18;;;5.30;;
76320;SDS011;65132;52.088;5.402;2023-03-29T10:14:10;10.57;;;4.85;;
76320;SDS011;65132;52.088;5.402;2023-03-29T10:16:41;10.15;;;5.18;;
76320;SDS011;65132;52.088;5.402;2023-03-29T10:19:14;12.35;;;5.70;;
76320;SDS011;65132;52.088;5.402;2023-03-29T10:21:48;12.05;;;6.22;;
76320;SDS011;65132;52.088;5.402;2023-03-29T10:24:22;13.60;;;6.40;;
76320;SDS011;65132;52.088;5.402;2023-03-29T10:27:03;12.85;;;5.68;;
76320;SDS011;65132;52.088;5.402;2023-03-29T10:29:38;16.88;;;7.47;;
76320;SDS011;65132;52.088;5.402;2023-03-29T10:32:14;12.88;;;6.45;;
76320;SDS011;65132;52.088;5.402;2023-03-29T10:34:51;14.90;;;7.78;;
76320;SDS011;65132;52.088;5.402;2023-03-29T10:37:20;12.55;;;7.57;;
76320;SDS011;65132;52.088;5.402;2023-03-29T10:39:49;14.57;;;7.63;;
76320;SDS011;65132;52.088;5.402;2023-03-29T10:42:21;12.20;;;6.40;;
76320;SDS011;65132;52.088;5.402;2023-03-29T10:44:51;12.20;;;6.15;;
76320;SDS011;65132;52.088;5.402;2023-03-29T10:47:19;15.18;;;7.90;;
76320;SDS011;65132;52.088;5.402;2023-03-29T10:49:49;12.65;;;6.70;;
76320;SDS011;65132;52.088;5.402;2023-03-29T10:52:22;15.95;;;7.03;;
76320;SDS011;65132;52.088;5.402;2023-03-29T10:54:48;17.20;;;7.45;;
76320;SDS011;65132;52.088;5.402;2023-03-29T10:57:24;16.35;;;8.50;;
76320;SDS011;65132;52.088;5.402;2023-03-29T11:05:32;9.88;;;5.43;;
76320;SDS011;65132;52.088;5.402;2023-03-29T11:08:04;19.95;;;7.50;;
76320;SDS011;65132;52.088;5.402;2023-03-29T11:13:35;17.80;;;8.25;;
76320;SDS011;65132;52.088;5.402;2023-03-29T11:22:02;16.55;;;7.45;;
76320;SDS011;65132;52.088;5.402;2023-03-29T11:30:33;13.75;;;6.65;;
76320;SDS011;65132;52.088;5.402;2023-03-29T11:33:11;16.88;;;7.85;;
76320;SDS011;65132;52.088;5.402;2023-03-29T11:35:54;16.70;;;8.65;;
76320;SDS011;65132;52.088;5.402;2023-03-29T11:41:23;11.05;;;6.43;;
76320;SDS011;65132;52.088;5.402;2023-03-29T11:44:03;13.55;;;7.22;;
76320;SDS011;65132;52.088;5.402;2023-03-29T11:52:00;17.42;;;9.15;;
76320;SDS011;65132;52.088;5.402;2023-03-29T11:54:47;17.80;;;10.25;;
76320;SDS011;65132;52.088;5.402;2023-03-29T11:57:30;20.65;;;10.02;;
76320;SDS011;65132;52.088;5.402;2023-03-29T12:02:51;18.70;;;9.55;;
76320;SDS011;65132;52.088;5.402;2023-03-29T12:05:22;18.67;;;10.27;;
76320;SDS011;65132;52.088;5.402;2023-03-29T12:08:06;14.20;;;7.93;;
76320;SDS011;65132;52.088;5.402;2023-03-29T12:10:45;17.75;;;9.60;;
76320;SDS011;65132;52.088;5.402;2023-03-29T12:16:00;13.63;;;7.78;;
76320;SDS011;65132;52.088;5.402;2023-03-29T12:18:44;19.45;;;10.90;;
76320;SDS011;65132;52.088;5.402;2023-03-29T12:21:14;18.75;;;10.23;;
76320;SDS011;65132;52.088;5.402;2023-03-29T12:23:45;17.80;;;9.75;;
76320;SDS011;65132;52.088;5.402;2023-03-29T12:37:52;11.52;;;6.60;;
76320;SDS011;65132;52.088;5.402;2023-03-29T12:40:24;21.67;;;9.95;;
76320;SDS011;65132;52.088;5.402;2023-03-29T12:43:03;24.70;;;10.68;;
76320;SDS011;65132;52.088;5.402;2023-03-29T12:45:36;20.08;;;10.18;;
76320;SDS011;65132;52.088;5.402;2023-03-29T12:48:04;22.92;;;11.32;;
76320;SDS011;65132;52.088;5.402;2023-03-29T12:50:33;21.38;;;10.60;;
76320;SDS011;65132;52.088;5.402;2023-03-29T12:53:17;22.23;;;9.57;;
76320;SDS011;65132;52.088;5.402;2023-03-29T12:55:49;19.00;;;9.32;;
76320;SDS011;65132;52.088;5.402;2023-03-29T12:58:22;22.63;;;10.30;;
76320;SDS011;65132;52.088;5.402;2023-03-29T13:01:04;19.17;;;9.52;;
76320;SDS011;65132;52.088;5.402;2023-03-29T13:06:12;20.98;;;9.50;;
76320;SDS011;65132;52.088;5.402;2023-03-29T13:11:52;18.33;;;10.25;;
76320;SDS011;65132;52.088;5.402;2023-03-29T13:14:20;16.90;;;9.80;;
76320;SDS011;65132;52.088;5.402;2023-03-29T13:16:49;22.00;;;10.75;;
76320;SDS011;65132;52.088;5.402;2023-03-29T13:21:58;18.13;;;9.43;;
76320;SDS011;65132;52.088;5.402;2023-03-29T13:27:28;19.60;;;9.90;;
76320;SDS011;65132;52.088;5.402;2023-03-29T13:30:09;18.10;;;9.70;;
76320;SDS011;65132;52.088;5.402;2023-03-29T13:38:09;21.00;;;10.63;;
76320;SDS011;65132;52.088;5.402;2023-03-29T13:40:46;22.17;;;10.35;;
76320;SDS011;65132;52.088;5.402;2023-03-29T13:43:29;17.65;;;10.65;;
76320;SDS011;65132;52.088;5.402;2023-03-29T13:48:31;16.15;;;9.95;;
76320;SDS011;65132;52.088;5.402;2023-03-29T13:56:17;17.17;;;10.10;;
76320;SDS011;65132;52.088;5.402;2023-03-29T13:59:01;17.67;;;10.27;;
76320;SDS011;65132;52.088;5.402;2023-03-29T14:01:35;14.52;;;8.15;;
76320;SDS011;65132;52.088;5.402;2023-03-29T14:04:09;17.60;;;10.02;;
76320;SDS011;65132;52.088;5.402;2023-03-29T14:06:40;16.88;;;9.30;;
76320;SDS011;65132;52.088;5.402;2023-03-29T14:09:13;20.23;;;11.73;;
76320;SDS011;65132;52.088;5.402;2023-03-29T14:11:45;17.08;;;10.25;;
76320;SDS011;65132;52.088;5.402;2023-03-29T14:14:15;17.48;;;10.00;;
76320;SDS011;65132;52.088;5.402;2023-03-29T14:16:50;18.05;;;9.15;;
76320;SDS011;65132;52.088;5.402;2023-03-29T14:19:27;19.05;;;10.48;;
76320;SDS011;65132;52.088;5.402;2023-03-29T14:22:08;15.55;;;9.65;;
76320;SDS011;65132;52.088;5.402;2023-03-29T14:24:39;17.40;;;10.05;;
76320;SDS011;65132;52.088;5.402;2023-03-29T14:27:10;16.52;;;10.80;;
76320;SDS011;65132;52.088;5.402;2023-03-29T14:29:37;16.08;;;10.10;;
76320;SDS011;65132;52.088;5.402;2023-03-29T14:32:10;18.75;;;10.50;;
76320;SDS011;65132;52.088;5.402;2023-03-29T14:34:38;18.45;;;10.43;;
76320;SDS011;65132;52.088;5.402;2023-03-29T14:37:10;17.88;;;12.07;;
76320;SDS011;65132;52.088;5.402;2023-03-29T14:39:40;18.73;;;9.95;;
76320;SDS011;65132;52.088;5.402;2023-03-29T14:42:30;13.15;;;8.75;;
76320;SDS011;65132;52.088;5.402;2023-03-29T14:44:59;13.32;;;8.45;;
76320;SDS011;65132;52.088;5.402;2023-03-29T14:47:29;14.27;;;8.68;;
76320;SDS011;65132;52.088;5.402;2023-03-29T14:49:57;14.02;;;8.50;;
76320;SDS011;65132;52.088;5.402;2023-03-29T14:52:24;15.35;;;8.57;;
76320;SDS011;65132;52.088;5.402;2023-03-29T14:57:26;12.40;;;7.85;;
76320;SDS011;65132;52.088;5.402;2023-03-29T15:00:02;12.30;;;7.82;;
76320;SDS011;65132;52.088;5.402;2023-03-29T15:03:15;11.85;;;7.35;;
76320;SDS011;65132;52.088;5.402;2023-03-29T15:05:41;15.15;;;9.07;;
76320;SDS011;65132;52.088;5.402;2023-03-29T15:08:13;13.48;;;8.98;;
76320;SDS011;65132;52.088;5.402;2023-03-29T15:10:44;13.18;;;8.15;;
76320;SDS011;65132;52.088;5.402;2023-03-29T15:13:13;13.10;;;7.35;;
76320;SDS011;65132;52.088;5.402;2023-03-29T15:15:45;8.85;;;7.00;;
76320;SDS011;65132;52.088;5.402;2023-03-29T15:18:12;11.18;;;6.70;;
76320;SDS011;65132;52.088;5.402;2023-03-29T15:20:43;10.25;;;6.65;;
76320;SDS011;65132;52.088;5.402;2023-03-29T15:25:51;10.35;;;6.70;;
76320;SDS011;65132;52.088;5.402;2023-03-29T15:28:24;9.95;;;6.07;;
76320;SDS011;65132;52.088;5.402;2023-03-29T15:30:55;8.07;;;5.13;;
76320;SDS011;65132;52.088;5.402;2023-03-29T15:33:33;7.78;;;5.00;;
76320;SDS011;65132;52.088;5.402;2023-03-29T15:36:02;8.77;;;6.05;;
76320;SDS011;65132;52.088;5.402;2023-03-29T15:38:34;10.38;;;5.80;;
76320;SDS011;65132;52.088;5.402;2023-03-29T15:41:10;10.15;;;5.88;;
76320;SDS011;65132;52.088;5.402;2023-03-29T15:43:37;10.35;;;6.38;;
76320;SDS011;65132;52.088;5.402;2023-03-29T15:46:12;10.82;;;5.60;;
76320;SDS011;65132;52.088;5.402;2023-03-29T15:48:42;10.23;;;5.93;;
76320;SDS011;65132;52.088;5.402;2023-03-29T15:51:09;10.40;;;6.18;;
76320;SDS011;65132;52.088;5.402;2023-03-29T15:53:36;10.77;;;4.50;;
76320;SDS011;65132;52.088;5.402;2023-03-29T15:56:04;8.35;;;4.95;;
76320;SDS011;65132;52.088;5.402;2023-03-29T15:58:33;8.07;;;4.72;;
76320;SDS011;65132;52.088;5.402;2023-03-29T16:01:07;5.63;;;2.80;;
76320;SDS011;65132;52.088;5.402;2023-03-29T16:03:46;7.70;;;3.88;;
76320;SDS011;65132;52.088;5.402;2023-03-29T16:06:13;6.43;;;3.97;;
76320;SDS011;65132;52.088;5.402;2023-03-29T16:08:40;9.10;;;5.00;;
76320;SDS011;65132;52.088;5.402;2023-03-29T16:11:07;8.30;;;5.53;;
76320;SDS011;65132;52.088;5.402;2023-03-29T16:13:34;8.40;;;5.00;;
76320;SDS011;65132;52.088;5.402;2023-03-29T16:16:01;7.93;;;5.00;;
76320;SDS011;65132;52.088;5.402;2023-03-29T16:18:28;9.38;;;4.95;;
76320;SDS011;65132;52.088;5.402;2023-03-29T16:20:57;7.90;;;4.47;;
76320;SDS011;65132;52.088;5.402;2023-03-29T16:23:26;7.45;;;5.10;;
76320;SDS011;65132;52.088;5.402;2023-03-29T16:25:57;12.27;;;7.50;;
76320;SDS011;65132;52.088;5.402;2023-03-29T16:28:23;11.13;;;6.20;;
76320;SDS011;65132;52.088;5.402;2023-03-29T16:30:51;14.32;;;6.05;;
76320;SDS011;65132;52.088;5.402;2023-03-29T16:33:17;11.05;;;7.55;;
76320;SDS011;65132;52.088;5.402;2023-03-29T16:35:44;9.85;;;5.45;;
76320;SDS011;65132;52.088;5.402;2023-03-29T16:38:10;7.70;;;4.40;;
76320;SDS011;65132;52.088;5.402;2023-03-29T16:40:39;7.40;;;4.20;;
76320;SDS011;65132;52.088;5.402;2023-03-29T16:43:08;9.02;;;5.32;;
76320;SDS011;65132;52.088;5.402;2023-03-29T16:45:39;9.77;;;4.80;;
76320;SDS011;65132;52.088;5.402;2023-03-29T16:48:11;9.05;;;4.45;;
76320;SDS011;65132;52.088;5.402;2023-03-29T16:50:41;7.50;;;4.10;;
76320;SDS011;65132;52.088;5.402;2023-03-29T16:53:08;7.00;;;4.85;;
76320;SDS011;65132;52.088;5.402;2023-03-29T16:55:37;8.32;;;4.93;;
76320;SDS011;65132;52.088;5.402;2023-03-29T16:58:07;8.93;;;4.97;;
76320;SDS011;65132;52.088;5.402;2023-03-29T17:00:34;10.27;;;5.20;;
76320;SDS011;65132;52.088;5.402;2023-03-29T17:03:00;9.23;;;5.40;;
76320;SDS011;65132;52.088;5.402;2023-03-29T17:05:29;10.70;;;5.88;;
76320;SDS011;65132;52.088;5.402;2023-03-29T17:08:04;12.23;;;5.28;;
76320;SDS011;65132;52.088;5.402;2023-03-29T17:10:32;8.85;;;4.78;;
76320;SDS011;65132;52.088;5.402;2023-03-29T17:13:00;7.90;;;5.32;;